createdAt,value
2022-08-11T00:01:23.895Z,3.80
2022-08-11T00:03:55.178Z,4.20
2022-08-11T00:06:35.566Z,4.00
2022-08-11T00:09:07.073Z,3.38
2022-08-11T00:11:39.723Z,3.58
2022-08-11T00:14:37.156Z,3.53
2022-08-11T00:17:12.083Z,3.95
2022-08-11T00:20:12.751Z,3.72
2022-08-11T00:22:35.510Z,3.80
2022-08-11T00:25:12.887Z,3.83
2022-08-11T00:27:41.917Z,3.70
2022-08-11T00:30:12.235Z,4.13
2022-08-11T00:32:42.997Z,3.38
2022-08-11T00:35:52.013Z,4.22
2022-08-11T00:38:03.548Z,3.90
2022-08-11T00:40:51.366Z,4.00
2022-08-11T00:43:36.207Z,3.85
2022-08-11T00:46:22.642Z,3.90
2022-08-11T00:49:14.373Z,3.53
2022-08-11T00:52:04.759Z,3.90
2022-08-11T00:54:39.731Z,3.63
2022-08-11T00:57:37.573Z,4.07
2022-08-11T01:00:11.900Z,3.80
2022-08-11T01:03:18.655Z,4.00
2022-08-11T01:06:25.644Z,3.75
2022-08-11T01:09:17.759Z,3.67
2022-08-11T01:12:14.719Z,4.00
2022-08-11T01:15:05.678Z,4.57
2022-08-11T01:17:51.399Z,4.40
2022-08-11T01:20:49.606Z,4.32
2022-08-11T01:23:36.039Z,3.90
2022-08-11T01:26:34.361Z,4.50
2022-08-11T01:29:19.763Z,4.28
2022-08-11T01:32:02.313Z,4.60
2022-08-11T01:34:57.832Z,4.85
2022-08-11T01:37:48.104Z,4.82
2022-08-11T01:40:53.290Z,4.63
2022-08-11T01:44:01.420Z,4.50
2022-08-11T01:46:40.423Z,4.88
2022-08-11T01:50:05.127Z,4.53
2022-08-11T01:52:18.888Z,4.82
2022-08-11T01:55:07.779Z,4.95
2022-08-11T01:57:53.664Z,4.82
2022-08-11T02:00:26.513Z,4.78
2022-08-11T02:02:59.477Z,4.82
2022-08-11T02:05:44.500Z,5.22
2022-08-11T02:08:33.060Z,4.80
2022-08-11T02:11:31.685Z,5.05
2022-08-11T02:14:15.534Z,4.70
2022-08-11T02:17:19.244Z,4.85
2022-08-11T02:20:33.707Z,4.88
2022-08-11T02:24:05.015Z,4.85
2022-08-11T02:26:34.368Z,4.80
2022-08-11T02:29:22.035Z,5.03
2022-08-11T02:32:35.549Z,4.93
2022-08-11T02:35:21.958Z,5.05
2022-08-11T02:37:52.083Z,4.53
2022-08-11T02:41:24.729Z,4.03
2022-08-11T02:44:12.236Z,4.70
2022-08-11T02:47:09.079Z,4.72
2022-08-11T02:50:06.177Z,4.93
2022-08-11T02:52:50.875Z,4.82
2022-08-11T02:55:44.660Z,4.63
2022-08-11T02:58:28.602Z,3.90
2022-08-11T03:01:11.700Z,4.30
2022-08-11T03:04:00.808Z,4.20
2022-08-11T03:07:29.002Z,4.40
2022-08-11T03:10:27.264Z,4.43
2022-08-11T03:13:26.010Z,4.38
2022-08-11T03:16:32.097Z,4.40
2022-08-11T03:19:02.438Z,4.90
2022-08-11T03:22:01.624Z,4.80
2022-08-11T03:24:46.584Z,4.50
2022-08-11T03:27:48.887Z,4.55
2022-08-11T03:30:19.019Z,4.43
2022-08-11T03:33:23.435Z,4.68
2022-08-11T03:36:09.504Z,4.60
2022-08-11T03:39:30.574Z,4.30
2022-08-11T03:42:12.972Z,4.25
2022-08-11T03:44:48.529Z,4.50
2022-08-11T03:47:32.232Z,4.50
2022-08-11T03:50:31.035Z,4.50
2022-08-11T03:53:16.601Z,4.30
2022-08-11T03:56:05.166Z,4.20
2022-08-11T03:59:01.900Z,4.10
2022-08-11T04:01:50.748Z,4.10
2022-08-11T04:04:45.162Z,4.80
2022-08-11T04:07:39.600Z,3.92
2022-08-11T04:10:35.991Z,3.72
2022-08-11T04:13:37.036Z,4.22
2022-08-11T04:16:45.527Z,4.25
2022-08-11T04:19:37.822Z,4.03
2022-08-11T04:22:26.772Z,3.90
2022-08-11T04:25:18.411Z,4.47
2022-08-11T04:27:54.705Z,3.95
2022-08-11T04:30:44.233Z,3.40
2022-08-11T04:33:41.909Z,4.75
2022-08-11T04:37:05.040Z,4.05
2022-08-11T04:40:20.348Z,3.63
2022-08-11T04:43:22.656Z,3.80
2022-08-11T04:46:15.145Z,4.47
2022-08-11T04:49:26.272Z,3.63
2022-08-11T04:52:42.481Z,4.10
2022-08-11T04:55:40.491Z,4.10
2022-08-11T04:58:40.251Z,3.70
2022-08-11T05:01:41.871Z,4.07
2022-08-11T05:04:46.907Z,4.07
2022-08-11T05:07:46.111Z,3.85
2022-08-11T05:10:13.651Z,4.00
2022-08-11T05:12:50.375Z,3.90
2022-08-11T05:15:44.659Z,3.60
2022-08-11T05:18:36.048Z,3.78
2022-08-11T05:21:27.477Z,3.70
2022-08-11T05:24:39.872Z,4.10
2022-08-11T05:27:31.029Z,3.53
2022-08-11T05:35:06.778Z,3.75
